sensor_id;sensor_type;location;lat;lon;timestamp;temperature;humidity
39875;DHT22;25547;52.530;13.194;2022-09-01T00:01:14;16.70;95.00
39875;DHT22;25547;52.530;13.194;2022-09-01T00:03:43;16.70;94.70
39875;DHT22;25547;52.530;13.194;2022-09-01T00:06:16;16.70;94.70
39875;DHT22;25547;52.530;13.194;2022-09-01T00:08:56;16.80;94.70
39875;DHT22;25547;52.530;13.194;2022-09-01T00:11:23;16.80;94.50
39875;DHT22;25547;52.530;13.194;2022-09-01T00:13:50;16.80;94.50
39875;DHT22;25547;52.530;13.194;2022-09-01T00:16:18;16.70;94.80
39875;DHT22;25547;52.530;13.194;2022-09-01T00:18:45;16.70;95.00
39875;DHT22;25547;52.530;13.194;2022-09-01T00:21:15;16.70;94.70
39875;DHT22;25547;52.530;13.194;2022-09-01T00:23:40;16.80;94.50
39875;DHT22;25547;52.530;13.194;2022-09-01T00:26:06;16.80;94.20
39875;DHT22;25547;52.530;13.194;2022-09-01T00:28:32;16.80;94.20
39875;DHT22;25547;52.530;13.194;2022-09-01T00:30:58;16.70;94.20
39875;DHT22;25547;52.530;13.194;2022-09-01T00:33:23;16.80;94.10
39875;DHT22;25547;52.530;13.194;2022-09-01T00:35:49;16.70;94.10
39875;DHT22;25547;52.530;13.194;2022-09-01T00:38:17;16.80;94.10
39875;DHT22;25547;52.530;13.194;2022-09-01T00:40:42;16.70;93.90
39875;DHT22;25547;52.530;13.194;2022-09-01T00:43:12;16.70;94.00
39875;DHT22;25547;52.530;13.194;2022-09-01T00:45:37;16.70;94.00
39875;DHT22;25547;52.530;13.194;2022-09-01T00:48:03;16.70;94.10
39875;DHT22;25547;52.530;13.194;2022-09-01T00:50:30;16.60;94.20
39875;DHT22;25547;52.530;13.194;2022-09-01T00:52:56;16.60;94.40
39875;DHT22;25547;52.530;13.194;2022-09-01T00:55:26;16.70;94.20
39875;DHT22;25547;52.530;13.194;2022-09-01T00:57:53;16.60;94.20
39875;DHT22;25547;52.530;13.194;2022-09-01T01:00:21;16.70;94.20
39875;DHT22;25547;52.530;13.194;2022-09-01T01:02:47;16.70;94.30
39875;DHT22;25547;52.530;13.194;2022-09-01T01:05:14;16.70;94.30
39875;DHT22;25547;52.530;13.194;2022-09-01T01:07:41;16.60;94.40
39875;DHT22;25547;52.530;13.194;2022-09-01T01:10:11;16.60;94.60
39875;DHT22;25547;52.530;13.194;2022-09-01T01:12:38;16.60;94.70
39875;DHT22;25547;52.530;13.194;2022-09-01T01:15:05;16.50;94.80
39875;DHT22;25547;52.530;13.194;2022-09-01T01:17:31;16.50;95.10
39875;DHT22;25547;52.530;13.194;2022-09-01T01:19:57;16.50;95.10
39875;DHT22;25547;52.530;13.194;2022-09-01T01:25:25;16.40;95.40
39875;DHT22;25547;52.530;13.194;2022-09-01T01:27:51;16.40;96.00
39875;DHT22;25547;52.530;13.194;2022-09-01T01:30:19;16.30;95.80
39875;DHT22;25547;52.530;13.194;2022-09-01T01:32:45;16.40;95.80
39875;DHT22;25547;52.530;13.194;2022-09-01T01:35:14;16.30;95.70
39875;DHT22;25547;52.530;13.194;2022-09-01T01:37:40;16.30;95.90
39875;DHT22;25547;52.530;13.194;2022-09-01T01:40:08;16.20;96.10
39875;DHT22;25547;52.530;13.194;2022-09-01T01:42:47;16.20;96.40
39875;DHT22;25547;52.530;13.194;2022-09-01T01:45:13;16.10;96.50
39875;DHT22;25547;52.530;13.194;2022-09-01T01:47:42;16.10;96.60
39875;DHT22;25547;52.530;13.194;2022-09-01T01:50:08;16.20;96.50
39875;DHT22;25547;52.530;13.194;2022-09-01T01:52:34;16.20;96.50
39875;DHT22;25547;52.530;13.194;2022-09-01T01:55:00;16.20;96.50
39875;DHT22;25547;52.530;13.194;2022-09-01T01:57:26;16.10;96.90
39875;DHT22;25547;52.530;13.194;2022-09-01T01:59:56;16.10;96.80
39875;DHT22;25547;52.530;13.194;2022-09-01T02:02:22;16.20;96.70
39875;DHT22;25547;52.530;13.194;2022-09-01T02:04:47;16.20;96.70
39875;DHT22;25547;52.530;13.194;2022-09-01T02:07:13;16.20;96.70
39875;DHT22;25547;52.530;13.194;2022-09-01T02:09:38;16.20;96.80
39875;DHT22;25547;52.530;13.194;2022-09-01T02:12:10;16.20;96.90
39875;DHT22;25547;52.530;13.194;2022-09-01T02:14:36;16.30;96.90
39875;DHT22;25547;52.530;13.194;2022-09-01T02:17:04;16.20;97.10
39875;DHT22;25547;52.530;13.194;2022-09-01T02:19:32;16.20;97.30
39875;DHT22;25547;52.530;13.194;2022-09-01T02:22:00;16.20;97.30
39875;DHT22;25547;52.530;13.194;2022-09-01T02:24:26;16.10;97.50
39875;DHT22;25547;52.530;13.194;2022-09-01T02:26:55;16.10;97.80
39875;DHT22;25547;52.530;13.194;2022-09-01T02:29:24;16.10;97.90
39875;DHT22;25547;52.530;13.194;2022-09-01T02:31:56;15.90;98.50
39875;DHT22;25547;52.530;13.194;2022-09-01T02:34:24;15.90;98.80
39875;DHT22;25547;52.530;13.194;2022-09-01T02:36:52;15.90;99.00
39875;DHT22;25547;52.530;13.194;2022-09-01T02:39:27;15.90;99.10
39875;DHT22;25547;52.530;13.194;2022-09-01T02:41:53;15.90;99.50
39875;DHT22;25547;52.530;13.194;2022-09-01T02:44:21;15.70;99.90
39875;DHT22;25547;52.530;13.194;2022-09-01T02:46:47;15.70;99.90
39875;DHT22;25547;52.530;13.194;2022-09-01T02:49:16;15.50;99.90
39875;DHT22;25547;52.530;13.194;2022-09-01T02:51:45;15.50;99.90
39875;DHT22;25547;52.530;13.194;2022-09-01T02:54:13;15.50;99.90
39875;DHT22;25547;52.530;13.194;2022-09-01T02:56:43;15.60;99.90
39875;DHT22;25547;52.530;13.194;2022-09-01T02:59:15;15.60;99.90
39875;DHT22;25547;52.530;13.194;2022-09-01T03:01:41;15.50;99.90
39875;DHT22;25547;52.530;13.194;2022-09-01T03:04:07;15.50;99.90
39875;DHT22;25547;52.530;13.194;2022-09-01T03:06:34;15.50;99.90
39875;DHT22;25547;52.530;13.194;2022-09-01T03:09:01;15.40;99.90
39875;DHT22;25547;52.530;13.194;2022-09-01T03:11:30;15.40;99.90
39875;DHT22;25547;52.530;13.194;2022-09-01T03:13:56;15.40;99.90
39875;DHT22;25547;52.530;13.194;2022-09-01T03:16:22;15.30;99.90
39875;DHT22;25547;52.530;13.194;2022-09-01T03:18:47;15.30;99.90
39875;DHT22;25547;52.530;13.194;2022-09-01T03:21:13;15.30;99.90
39875;DHT22;25547;52.530;13.194;2022-09-01T03:23:45;15.20;99.90
39875;DHT22;25547;52.530;13.194;2022-09-01T03:26:11;15.20;99.90
39875;DHT22;25547;52.530;13.194;2022-09-01T03:28:37;15.20;99.90
39875;DHT22;25547;52.530;13.194;2022-09-01T03:31:05;15.20;99.90
39875;DHT22;25547;52.530;13.194;2022-09-01T03:33:34;15.10;99.90
39875;DHT22;25547;52.530;13.194;2022-09-01T03:36:03;15.10;99.90
39875;DHT22;25547;52.530;13.194;2022-09-01T03:38:31;15.20;99.90
39875;DHT22;25547;52.530;13.194;2022-09-01T03:41:05;15.10;99.90
39875;DHT22;25547;52.530;13.194;2022-09-01T03:43:31;15.00;99.90
39875;DHT22;25547;52.530;13.194;2022-09-01T03:45:58;15.10;99.90
39875;DHT22;25547;52.530;13.194;2022-09-01T03:48:25;15.00;99.90
39875;DHT22;25547;52.530;13.194;2022-09-01T03:50:53;15.10;99.90
39875;DHT22;25547;52.530;13.194;2022-09-01T03:53:20;15.00;99.90
39875;DHT22;25547;52.530;13.194;2022-09-01T03:55:47;15.00;99.90
39875;DHT22;25547;52.530;13.194;2022-09-01T03:58:14;15.00;99.90
39875;DHT22;25547;52.530;13.194;2022-09-01T04:00:44;14.90;99.90
39875;DHT22;25547;52.530;13.194;2022-09-01T04:03:11;15.00;99.90
39875;DHT22;25547;52.530;13.194;2022-09-01T04:05:42;14.90;99.90
39875;DHT22;25547;52.530;13.194;2022-09-01T04:08:08;14.90;99.90
39875;DHT22;25547;52.530;13.194;2022-09-01T04:10:41;14.90;99.90
39875;DHT22;25547;52.530;13.194;2022-09-01T04:13:12;14.90;99.90
39875;DHT22;25547;52.530;13.194;2022-09-01T04:15:38;14.90;99.90
39875;DHT22;25547;52.530;13.194;2022-09-01T04:18:03;14.90;99.90
39875;DHT22;25547;52.530;13.194;2022-09-01T04:20:40;15.00;99.90
39875;DHT22;25547;52.530;13.194;2022-09-01T04:23:16;15.00;99.90
39875;DHT22;25547;52.530;13.194;2022-09-01T04:25:54;14.90;99.90
39875;DHT22;25547;52.530;13.194;2022-09-01T04:28:21;14.90;99.90
39875;DHT22;25547;52.530;13.194;2022-09-01T04:30:56;15.00;99.90
39875;DHT22;25547;52.530;13.194;2022-09-01T04:33:23;14.70;99.90
39875;DHT22;25547;52.530;13.194;2022-09-01T04:35:52;14.50;99.90
39875;DHT22;25547;52.530;13.194;2022-09-01T04:38:19;14.60;99.90
39875;DHT22;25547;52.530;13.194;2022-09-01T04:40:46;14.60;99.90
39875;DHT22;25547;52.530;13.194;2022-09-01T04:43:13;14.70;99.90
39875;DHT22;25547;52.530;13.194;2022-09-01T04:45:39;14.50;99.90
39875;DHT22;25547;52.530;13.194;2022-09-01T04:48:05;14.50;99.90
39875;DHT22;25547;52.530;13.194;2022-09-01T04:50:31;14.50;99.90
39875;DHT22;25547;52.530;13.194;2022-09-01T04:53:02;14.40;99.90
39875;DHT22;25547;52.530;13.194;2022-09-01T04:55:30;14.60;99.90
39875;DHT22;25547;52.530;13.194;2022-09-01T04:58:00;14.50;99.90
39875;DHT22;25547;52.530;13.194;2022-09-01T05:00:27;14.50;99.90
39875;DHT22;25547;52.530;13.194;2022-09-01T05:03:00;14.40;99.90
39875;DHT22;25547;52.530;13.194;2022-09-01T05:05:40;14.50;99.90
39875;DHT22;25547;52.530;13.194;2022-09-01T05:08:11;14.50;99.90
39875;DHT22;25547;52.530;13.194;2022-09-01T05:10:43;14.50;99.90
39875;DHT22;25547;52.530;13.194;2022-09-01T05:13:09;14.40;99.90
39875;DHT22;25547;52.530;13.194;2022-09-01T05:15:38;14.60;99.90
39875;DHT22;25547;52.530;13.194;2022-09-01T05:18:06;14.60;99.90
39875;DHT22;25547;52.530;13.194;2022-09-01T05:20:40;14.50;99.90
39875;DHT22;25547;52.530;13.194;2022-09-01T05:23:07;14.70;99.90
39875;DHT22;25547;52.530;13.194;2022-09-01T05:25:37;14.60;99.90
39875;DHT22;25547;52.530;13.194;2022-09-01T05:28:03;14.70;99.90
39875;DHT22;25547;52.530;13.194;2022-09-01T05:30:28;14.60;99.90
39875;DHT22;25547;52.530;13.194;2022-09-01T05:32:55;14.70;99.90
39875;DHT22;25547;52.530;13.194;2022-09-01T05:35:20;14.70;99.90
39875;DHT22;25547;52.530;13.194;2022-09-01T05:37:48;14.70;99.90
39875;DHT22;25547;52.530;13.194;2022-09-01T05:40:16;14.70;99.90
39875;DHT22;25547;52.530;13.194;2022-09-01T05:42:42;14.80;99.90
39875;DHT22;25547;52.530;13.194;2022-09-01T05:45:08;14.70;99.90
39875;DHT22;25547;52.530;13.194;2022-09-01T05:47:37;14.70;99.90
39875;DHT22;25547;52.530;13.194;2022-09-01T05:50:06;14.60;99.90
39875;DHT22;25547;52.530;13.194;2022-09-01T05:52:35;14.60;99.90
39875;DHT22;25547;52.530;13.194;2022-09-01T05:55:05;14.80;99.90
39875;DHT22;25547;52.530;13.194;2022-09-01T05:57:33;14.80;99.90
39875;DHT22;25547;52.530;13.194;2022-09-01T05:59:59;15.00;99.90
39875;DHT22;25547;52.530;13.194;2022-09-01T06:02:26;15.00;99.90
39875;DHT22;25547;52.530;13.194;2022-09-01T06:04:52;15.00;99.90
39875;DHT22;25547;52.530;13.194;2022-09-01T06:07:21;15.10;99.90
39875;DHT22;25547;52.530;13.194;2022-09-01T06:09:47;15.10;99.90
39875;DHT22;25547;52.530;13.194;2022-09-01T06:12:13;15.10;99.90
39875;DHT22;25547;52.530;13.194;2022-09-01T06:14:48;15.10;99.90
39875;DHT22;25547;52.530;13.194;2022-09-01T06:17:14;15.00;99.90
39875;DHT22;25547;52.530;13.194;2022-09-01T06:19:46;15.00;99.90
39875;DHT22;25547;52.530;13.194;2022-09-01T06:22:12;15.10;99.90
39875;DHT22;25547;52.530;13.194;2022-09-01T06:24:38;15.10;99.90
39875;DHT22;25547;52.530;13.194;2022-09-01T06:27:06;15.20;99.90
39875;DHT22;25547;52.530;13.194;2022-09-01T06:29:36;15.30;99.90
39875;DHT22;25547;52.530;13.194;2022-09-01T06:32:05;15.40;99.90
39875;DHT22;25547;52.530;13.194;2022-09-01T06:34:34;15.50;99.90
39875;DHT22;25547;52.530;13.194;2022-09-01T06:37:04;15.50;99.90
39875;DHT22;25547;52.530;13.194;2022-09-01T06:39:31;15.60;99.90
39875;DHT22;25547;52.530;13.194;2022-09-01T06:41:58;15.70;99.90
39875;DHT22;25547;52.530;13.194;2022-09-01T06:44:26;15.70;99.90
39875;DHT22;25547;52.530;13.194;2022-09-01T06:46:55;15.80;99.90
39875;DHT22;25547;52.530;13.194;2022-09-01T06:49:24;15.90;99.90
39875;DHT22;25547;52.530;13.194;2022-09-01T06:51:57;16.00;99.90
39875;DHT22;25547;52.530;13.194;2022-09-01T06:54:23;16.00;99.90
39875;DHT22;25547;52.530;13.194;2022-09-01T06:56:49;16.10;99.90
39875;DHT22;25547;52.530;13.194;2022-09-01T06:59:15;16.20;99.90
39875;DHT22;25547;52.530;13.194;2022-09-01T07:01:43;16.20;99.90
39875;DHT22;25547;52.530;13.194;2022-09-01T07:04:09;16.30;99.90
39875;DHT22;25547;52.530;13.194;2022-09-01T07:06:37;16.30;99.90
39875;DHT22;25547;52.530;13.194;2022-09-01T07:09:03;16.30;99.90
39875;DHT22;25547;52.530;13.194;2022-09-01T07:11:30;16.40;99.90
39875;DHT22;25547;52.530;13.194;2022-09-01T07:13:58;16.40;99.90
39875;DHT22;25547;52.530;13.194;2022-09-01T07:16:26;16.40;99.90
39875;DHT22;25547;52.530;13.194;2022-09-01T07:18:53;16.40;99.90
39875;DHT22;25547;52.530;13.194;2022-09-01T07:21:21;16.60;99.90
39875;DHT22;25547;52.530;13.194;2022-09-01T07:23:49;16.60;99.90
39875;DHT22;25547;52.530;13.194;2022-09-01T07:26:15;16.70;99.90
39875;DHT22;25547;52.530;13.194;2022-09-01T07:28:44;16.70;99.90
39875;DHT22;25547;52.530;13.194;2022-09-01T07:31:18;16.90;99.90
39875;DHT22;25547;52.530;13.194;2022-09-01T07:33:45;16.90;99.90
39875;DHT22;25547;52.530;13.194;2022-09-01T07:36:14;17.00;99.90
39875;DHT22;25547;52.530;13.194;2022-09-01T07:38:42;17.10;99.90
39875;DHT22;25547;52.530;13.194;2022-09-01T07:41:11;17.40;99.90
39875;DHT22;25547;52.530;13.194;2022-09-01T07:43:39;18.00;99.90
39875;DHT22;25547;52.530;13.194;2022-09-01T07:46:09;19.20;97.90
39875;DHT22;25547;52.530;13.194;2022-09-01T07:48:35;23.90;87.70
39875;DHT22;25547;52.530;13.194;2022-09-01T07:51:01;28.00;63.80
39875;DHT22;25547;52.530;13.194;2022-09-01T07:53:32;31.10;52.70
39875;DHT22;25547;52.530;13.194;2022-09-01T07:55:59;33.10;46.10
39875;DHT22;25547;52.530;13.194;2022-09-01T07:58:26;35.10;40.90
39875;DHT22;25547;52.530;13.194;2022-09-01T08:00:52;36.20;38.60
39875;DHT22;25547;52.530;13.194;2022-09-01T08:03:19;37.00;37.20
39875;DHT22;25547;52.530;13.194;2022-09-01T08:05:45;38.20;35.00
39875;DHT22;25547;52.530;13.194;2022-09-01T08:08:13;39.10;33.50
39875;DHT22;25547;52.530;13.194;2022-09-01T08:10:41;39.30;32.60
39875;DHT22;25547;52.530;13.194;2022-09-01T08:13:08;39.50;32.00
39875;DHT22;25547;52.530;13.194;2022-09-01T08:15:34;39.60;31.40
39875;DHT22;25547;52.530;13.194;2022-09-01T08:17:59;39.20;31.10
39875;DHT22;25547;52.530;13.194;2022-09-01T08:20:25;39.30;31.50
39875;DHT22;25547;52.530;13.194;2022-09-01T08:22:50;38.50;31.90
39875;DHT22;25547;52.530;13.194;2022-09-01T08:25:16;39.00;31.10
39875;DHT22;25547;52.530;13.194;2022-09-01T08:27:44;39.30;30.80
39875;DHT22;25547;52.530;13.194;2022-09-01T08:30:10;39.90;30.00
39875;DHT22;25547;52.530;13.194;2022-09-01T08:32:41;39.60;29.70
39875;DHT22;25547;52.530;13.194;2022-09-01T08:35:10;39.80;30.10
39875;DHT22;25547;52.530;13.194;2022-09-01T08:37:36;39.80;30.00
39875;DHT22;25547;52.530;13.194;2022-09-01T08:40:07;40.30;29.20
39875;DHT22;25547;52.530;13.194;2022-09-01T08:47:31;39.90;29.10
39875;DHT22;25547;52.530;13.194;2022-09-01T08:49:57;39.40;29.70
39875;DHT22;25547;52.530;13.194;2022-09-01T08:52:30;38.90;29.60
39875;DHT22;25547;52.530;13.194;2022-09-01T08:57:42;39.20;29.60
39875;DHT22;25547;52.530;13.194;2022-09-01T09:00:09;38.70;29.00
39875;DHT22;25547;52.530;13.194;2022-09-01T09:02:39;37.90;29.50
39875;DHT22;25547;52.530;13.194;2022-09-01T09:05:13;36.60;30.30
39875;DHT22;25547;52.530;13.194;2022-09-01T09:10:30;30.40;38.30
39875;DHT22;25547;52.530;13.194;2022-09-01T09:13:11;28.80;41.00
39875;DHT22;25547;52.530;13.194;2022-09-01T09:15:57;27.90;43.00
39875;DHT22;25547;52.530;13.194;2022-09-01T09:18:31;27.00;45.60
39875;DHT22;25547;52.530;13.194;2022-09-01T09:21:04;25.80;46.90
39875;DHT22;25547;52.530;13.194;2022-09-01T09:23:38;24.90;49.80
39875;DHT22;25547;52.530;13.194;2022-09-01T09:26:05;24.40;49.90
39875;DHT22;25547;52.530;13.194;2022-09-01T09:28:30;24.20;51.90
39875;DHT22;25547;52.530;13.194;2022-09-01T09:33:42;23.60;52.40
39875;DHT22;25547;52.530;13.194;2022-09-01T09:36:17;23.60;52.70
39875;DHT22;25547;52.530;13.194;2022-09-01T09:38:43;23.30;53.80
39875;DHT22;25547;52.530;13.194;2022-09-01T09:41:14;22.80;54.90
39875;DHT22;25547;52.530;13.194;2022-09-01T09:43:48;22.50;55.20
39875;DHT22;25547;52.530;13.194;2022-09-01T09:48:48;22.50;55.10
39875;DHT22;25547;52.530;13.194;2022-09-01T09:51:20;22.10;55.30
39875;DHT22;25547;52.530;13.194;2022-09-01T09:53:49;22.10;55.90
39875;DHT22;25547;52.530;13.194;2022-09-01T09:56:17;22.20;56.40
39875;DHT22;25547;52.530;13.194;2022-09-01T09:58:43;21.60;55.40
39875;DHT22;25547;52.530;13.194;2022-09-01T10:01:11;21.20;57.10
39875;DHT22;25547;52.530;13.194;2022-09-01T10:03:44;21.10;58.50
39875;DHT22;25547;52.530;13.194;2022-09-01T10:06:12;21.30;58.00
39875;DHT22;25547;52.530;13.194;2022-09-01T10:08:39;21.30;58.10
39875;DHT22;25547;52.530;13.194;2022-09-01T10:11:10;21.50;58.40
39875;DHT22;25547;52.530;13.194;2022-09-01T10:13:38;21.70;57.90
39875;DHT22;25547;52.530;13.194;2022-09-01T10:16:06;21.60;58.50
39875;DHT22;25547;52.530;13.194;2022-09-01T10:18:34;21.60;57.90
39875;DHT22;25547;52.530;13.194;2022-09-01T10:21:07;21.80;57.00
39875;DHT22;25547;52.530;13.194;2022-09-01T10:23:33;22.10;56.10
39875;DHT22;25547;52.530;13.194;2022-09-01T10:26:08;22.10;55.30
39875;DHT22;25547;52.530;13.194;2022-09-01T10:28:46;22.00;56.30
39875;DHT22;25547;52.530;13.194;2022-09-01T10:31:15;21.80;57.10
39875;DHT22;25547;52.530;13.194;2022-09-01T10:33:41;21.50;58.10
39875;DHT22;25547;52.530;13.194;2022-09-01T10:36:06;21.20;58.80
39875;DHT22;25547;52.530;13.194;2022-09-01T10:38:33;21.40;56.80
39875;DHT22;25547;52.530;13.194;2022-09-01T10:40:58;21.60;56.60
39875;DHT22;25547;52.530;13.194;2022-09-01T10:43:35;21.70;57.80
39875;DHT22;25547;52.530;13.194;2022-09-01T10:48:45;21.40;55.20
39875;DHT22;25547;52.530;13.194;2022-09-01T10:53:43;21.60;56.70
39875;DHT22;25547;52.530;13.194;2022-09-01T10:56:11;21.70;56.40
39875;DHT22;25547;52.530;13.194;2022-09-01T11:01:13;21.60;55.60
39875;DHT22;25547;52.530;13.194;2022-09-01T11:03:50;21.30;56.00
39875;DHT22;25547;52.530;13.194;2022-09-01T11:14:32;21.40;56.50
39875;DHT22;25547;52.530;13.194;2022-09-01T11:22:10;21.60;55.80
39875;DHT22;25547;52.530;13.194;2022-09-01T11:27:07;21.50;56.70
39875;DHT22;25547;52.530;13.194;2022-09-01T11:29:53;21.40;56.70
39875;DHT22;25547;52.530;13.194;2022-09-01T11:32:20;21.50;55.50
39875;DHT22;25547;52.530;13.194;2022-09-01T11:34:47;21.50;55.90
39875;DHT22;25547;52.530;13.194;2022-09-01T11:37:19;21.50;56.10
39875;DHT22;25547;52.530;13.194;2022-09-01T11:39:49;21.60;55.70
39875;DHT22;25547;52.530;13.194;2022-09-01T11:42:18;21.70;54.60
39875;DHT22;25547;52.530;13.194;2022-09-01T11:50:01;21.20;55.10
39875;DHT22;25547;52.530;13.194;2022-09-01T11:52:31;21.10;54.60
39875;DHT22;25547;52.530;13.194;2022-09-01T11:55:01;21.20;54.10
39875;DHT22;25547;52.530;13.194;2022-09-01T11:57:31;21.30;52.30
39875;DHT22;25547;52.530;13.194;2022-09-01T12:00:00;21.30;53.50
39875;DHT22;25547;52.530;13.194;2022-09-01T12:02:30;21.20;52.80
39875;DHT22;25547;52.530;13.194;2022-09-01T12:04:59;21.20;52.40
39875;DHT22;25547;52.530;13.194;2022-09-01T12:07:38;21.20;52.70
39875;DHT22;25547;52.530;13.194;2022-09-01T12:10:14;21.30;55.60
39875;DHT22;25547;52.530;13.194;2022-09-01T12:12:41;21.20;57.30
39875;DHT22;25547;52.530;13.194;2022-09-01T12:15:08;21.10;58.10
39875;DHT22;25547;52.530;13.194;2022-09-01T12:17:35;21.00;59.00
39875;DHT22;25547;52.530;13.194;2022-09-01T12:22:45;20.90;57.90
39875;DHT22;25547;52.530;13.194;2022-09-01T12:25:27;20.90;57.90
39875;DHT22;25547;52.530;13.194;2022-09-01T12:27:53;20.90;57.80
39875;DHT22;25547;52.530;13.194;2022-09-01T12:30:20;20.80;58.00
39875;DHT22;25547;52.530;13.194;2022-09-01T12:32:46;20.80;57.30
39875;DHT22;25547;52.530;13.194;2022-09-01T12:37:42;20.80;57.70
39875;DHT22;25547;52.530;13.194;2022-09-01T12:40:20;20.90;57.40
39875;DHT22;25547;52.530;13.194;2022-09-01T12:42:50;21.00;57.60
39875;DHT22;25547;52.530;13.194;2022-09-01T12:45:34;21.00;57.80
39875;DHT22;25547;52.530;13.194;2022-09-01T12:48:02;21.10;58.10
39875;DHT22;25547;52.530;13.194;2022-09-01T12:52:56;21.20;57.40
39875;DHT22;25547;52.530;13.194;2022-09-01T12:57:52;21.10;57.80
39875;DHT22;25547;52.530;13.194;2022-09-01T13:00:23;21.10;57.80
39875;DHT22;25547;52.530;13.194;2022-09-01T13:07:58;20.80;58.20
39875;DHT22;25547;52.530;13.194;2022-09-01T13:10:24;20.70;57.80
39875;DHT22;25547;52.530;13.194;2022-09-01T13:12:52;20.70;58.50
39875;DHT22;25547;52.530;13.194;2022-09-01T13:15:18;20.60;58.20
39875;DHT22;25547;52.530;13.194;2022-09-01T13:17:44;20.60;57.90
39875;DHT22;25547;52.530;13.194;2022-09-01T13:20:10;20.70;58.00
39875;DHT22;25547;52.530;13.194;2022-09-01T13:22:36;20.70;56.60
39875;DHT22;25547;52.530;13.194;2022-09-01T13:25:05;20.80;56.40
39875;DHT22;25547;52.530;13.194;2022-09-01T13:27:31;20.80;56.00
39875;DHT22;25547;52.530;13.194;2022-09-01T13:29:56;20.80;57.40
39875;DHT22;25547;52.530;13.194;2022-09-01T13:32:22;21.00;55.90
39875;DHT22;25547;52.530;13.194;2022-09-01T13:34:48;21.00;57.00
39875;DHT22;25547;52.530;13.194;2022-09-01T13:37:14;21.20;56.10
39875;DHT22;25547;52.530;13.194;2022-09-01T13:39:40;21.20;56.10
39875;DHT22;25547;52.530;13.194;2022-09-01T13:42:05;21.30;56.50
39875;DHT22;25547;52.530;13.194;2022-09-01T13:44:33;21.30;56.40
39875;DHT22;25547;52.530;13.194;2022-09-01T13:46:59;21.30;55.70
39875;DHT22;25547;52.530;13.194;2022-09-01T13:49:24;21.40;56.30
39875;DHT22;25547;52.530;13.194;2022-09-01T13:51:52;21.50;57.20
39875;DHT22;25547;52.530;13.194;2022-09-01T13:54:20;21.50;57.30
39875;DHT22;25547;52.530;13.194;2022-09-01T13:56:45;21.40;56.30
39875;DHT22;25547;52.530;13.194;2022-09-01T13:59:11;21.40;55.20
39875;DHT22;25547;52.530;13.194;2022-09-01T14:01:36;21.20;54.40
39875;DHT22;25547;52.530;13.194;2022-09-01T14:04:02;21.10;54.30
39875;DHT22;25547;52.530;13.194;2022-09-01T14:06:32;21.00;54.90
39875;DHT22;25547;52.530;13.194;2022-09-01T14:08:58;21.00;55.20
39875;DHT22;25547;52.530;13.194;2022-09-01T14:11:26;21.10;55.20
39875;DHT22;25547;52.530;13.194;2022-09-01T14:13:53;21.10;55.90
39875;DHT22;25547;52.530;13.194;2022-09-01T14:16:19;21.10;55.80
39875;DHT22;25547;52.530;13.194;2022-09-01T14:18:44;21.10;55.30
39875;DHT22;25547;52.530;13.194;2022-09-01T14:21:13;21.10;55.70
39875;DHT22;25547;52.530;13.194;2022-09-01T14:23:40;21.10;55.80
39875;DHT22;25547;52.530;13.194;2022-09-01T14:26:12;21.00;57.00
39875;DHT22;25547;52.530;13.194;2022-09-01T14:28:41;21.00;58.10
39875;DHT22;25547;52.530;13.194;2022-09-01T14:31:16;20.90;57.70
39875;DHT22;25547;52.530;13.194;2022-09-01T14:33:42;20.80;57.70
39875;DHT22;25547;52.530;13.194;2022-09-01T14:36:08;20.70;57.30
39875;DHT22;25547;52.530;13.194;2022-09-01T14:38:40;20.60;57.90
39875;DHT22;25547;52.530;13.194;2022-09-01T14:41:05;20.50;58.20
39875;DHT22;25547;52.530;13.194;2022-09-01T14:43:31;20.50;58.90
39875;DHT22;25547;52.530;13.194;2022-09-01T14:46:01;20.50;58.90
39875;DHT22;25547;52.530;13.194;2022-09-01T14:48:30;20.50;58.90
39875;DHT22;25547;52.530;13.194;2022-09-01T14:50:58;20.70;58.10
39875;DHT22;25547;52.530;13.194;2022-09-01T14:53:25;20.80;57.70
39875;DHT22;25547;52.530;13.194;2022-09-01T14:55:53;20.90;57.90
39875;DHT22;25547;52.530;13.194;2022-09-01T14:58:18;21.00;57.10
39875;DHT22;25547;52.530;13.194;2022-09-01T15:00:44;21.00;57.30
39875;DHT22;25547;52.530;13.194;2022-09-01T15:03:09;21.00;58.50
39875;DHT22;25547;52.530;13.194;2022-09-01T15:05:36;20.90;59.30
39875;DHT22;25547;52.530;13.194;2022-09-01T15:08:02;21.10;58.80
39875;DHT22;25547;52.530;13.194;2022-09-01T15:10:27;21.20;58.00
39875;DHT22;25547;52.530;13.194;2022-09-01T15:12:54;21.20;58.40
39875;DHT22;25547;52.530;13.194;2022-09-01T15:15:20;21.10;58.00
39875;DHT22;25547;52.530;13.194;2022-09-01T15:17:46;21.00;58.30
39875;DHT22;25547;52.530;13.194;2022-09-01T15:20:11;20.90;58.70
39875;DHT22;25547;52.530;13.194;2022-09-01T15:22:55;20.70;59.30
39875;DHT22;25547;52.530;13.194;2022-09-01T15:25:21;20.50;60.50
39875;DHT22;25547;52.530;13.194;2022-09-01T15:27:46;20.40;59.50
39875;DHT22;25547;52.530;13.194;2022-09-01T15:30:12;20.40;59.80
39875;DHT22;25547;52.530;13.194;2022-09-01T15:32:45;20.30;59.80
39875;DHT22;25547;52.530;13.194;2022-09-01T15:35:11;20.20;60.80
39875;DHT22;25547;52.530;13.194;2022-09-01T15:37:37;20.20;59.10
39875;DHT22;25547;52.530;13.194;2022-09-01T15:40:05;20.20;59.70
39875;DHT22;25547;52.530;13.194;2022-09-01T15:42:32;20.20;60.10
39875;DHT22;25547;52.530;13.194;2022-09-01T15:45:04;20.20;59.60
39875;DHT22;25547;52.530;13.194;2022-09-01T15:47:30;20.20;59.20
39875;DHT22;25547;52.530;13.194;2022-09-01T15:49:57;20.10;59.20
39875;DHT22;25547;52.530;13.194;2022-09-01T15:52:25;20.10;59.30
39875;DHT22;25547;52.530;13.194;2022-09-01T15:54:52;20.10;60.00
39875;DHT22;25547;52.530;13.194;2022-09-01T15:57:18;20.00;60.50
39875;DHT22;25547;52.530;13.194;2022-09-01T15:59:43;20.00;61.40
39875;DHT22;25547;52.530;13.194;2022-09-01T16:02:09;20.00;61.40
39875;DHT22;25547;52.530;13.194;2022-09-01T16:04:35;20.00;61.30
39875;DHT22;25547;52.530;13.194;2022-09-01T16:07:04;20.10;62.10
39875;DHT22;25547;52.530;13.194;2022-09-01T16:09:31;20.10;62.50
39875;DHT22;25547;52.530;13.194;2022-09-01T16:11:57;20.20;62.80
39875;DHT22;25547;52.530;13.194;2022-09-01T16:14:22;20.20;62.80
39875;DHT22;25547;52.530;13.194;2022-09-01T16:16:58;20.30;62.70
39875;DHT22;25547;52.530;13.194;2022-09-01T16:24:39;20.40;61.80
39875;DHT22;25547;52.530;13.194;2022-09-01T16:27:06;20.40;61.20
39875;DHT22;25547;52.530;13.194;2022-09-01T16:29:33;20.40;60.80